createdAt,value
2018-12-14T00:02:37.202Z,7.67
2018-12-14T00:05:17.218Z,7.23
2018-12-14T00:07:58.016Z,5.70
2018-12-14T00:10:36.319Z,6.33
2018-12-14T00:13:14.298Z,6.67
2018-12-14T00:15:52.084Z,6.93
2018-12-14T00:18:27.978Z,7.60
2018-12-14T00:21:08.250Z,6.83
2018-12-14T00:23:46.623Z,7.13
2018-12-14T00:26:22.667Z,6.10
2018-12-14T00:29:01.264Z,7.13
2018-12-14T00:31:39.308Z,7.93
2018-12-14T00:34:17.076Z,7.63
2018-12-14T00:36:57.498Z,7.30
2018-12-14T00:39:33.760Z,7.67
2018-12-14T00:42:11.664Z,6.33
2018-12-14T00:44:49.777Z,6.90
2018-12-14T00:47:30.189Z,5.83
2018-12-14T00:50:07.582Z,6.70
2018-12-14T00:52:45.774Z,7.77
2018-12-14T00:55:23.368Z,6.37
2018-12-14T00:58:01.370Z,5.93
2018-12-14T01:00:49.904Z,7.97
2018-12-14T01:03:26.220Z,6.40
2018-12-14T01:06:04.048Z,6.53
2018-12-14T01:08:41.943Z,6.87
2018-12-14T01:11:30.184Z,6.17
2018-12-14T01:14:14.255Z,6.73
2018-12-14T01:16:52.699Z,7.20
2018-12-14T01:19:30.580Z,5.17
2018-12-14T01:22:06.584Z,7.03
2018-12-14T01:24:44.463Z,5.60
2018-12-14T01:27:22.054Z,6.30
2018-12-14T01:30:00.141Z,6.67
2018-12-14T01:32:38.142Z,5.67
2018-12-14T01:35:26.536Z,7.50
2018-12-14T01:38:04.794Z,6.87
2018-12-14T01:40:42.478Z,6.03
2018-12-14T01:43:22.808Z,6.13
2018-12-14T01:46:01.153Z,8.17
2018-12-14T01:48:36.940Z,6.33
2018-12-14T01:51:12.838Z,6.83
2018-12-14T01:53:50.561Z,7.00
2018-12-14T01:56:29.234Z,5.83
2018-12-14T01:59:07.559Z,5.67
2018-12-14T02:01:45.490Z,6.67
2018-12-14T02:04:21.355Z,7.20
2018-12-14T02:06:59.292Z,5.93
2018-12-14T02:09:35.026Z,7.23
2018-12-14T02:12:11.515Z,6.17
2018-12-14T02:14:52.351Z,6.67
2018-12-14T02:17:30.856Z,5.77
2018-12-14T02:20:08.655Z,5.53
2018-12-14T02:22:46.484Z,5.93
2018-12-14T02:25:26.768Z,6.37
2018-12-14T02:28:05.373Z,6.27
2018-12-14T02:30:44.466Z,7.37
2018-12-14T02:33:22.141Z,7.03
2018-12-14T02:35:58.042Z,6.20
2018-12-14T02:38:36.333Z,7.37
2018-12-14T02:41:14.305Z,5.73
2018-12-14T02:44:02.735Z,5.93
2018-12-14T02:46:41.184Z,6.33
2018-12-14T02:49:19.074Z,6.33
2018-12-14T02:51:57.031Z,5.37
2018-12-14T02:54:35.067Z,7.53
2018-12-14T02:57:11.095Z,5.77
2018-12-14T02:59:48.677Z,5.33
2018-12-14T03:02:24.735Z,5.30
2018-12-14T03:05:00.911Z,4.57
2018-12-14T03:07:39.716Z,6.33
2018-12-14T03:10:18.381Z,6.07
2018-12-14T03:12:55.992Z,5.47
2018-12-14T03:15:40.373Z,6.10
2018-12-14T03:18:18.849Z,5.80
2018-12-14T03:20:56.747Z,4.37
2018-12-14T03:23:34.676Z,6.20
2018-12-14T03:26:23.091Z,4.77
2018-12-14T03:29:01.683Z,5.43
2018-12-14T03:31:39.688Z,5.83
2018-12-14T03:34:17.471Z,5.43
2018-12-14T03:36:57.766Z,4.03
2018-12-14T03:39:42.717Z,5.77
2018-12-14T03:42:20.960Z,5.23
2018-12-14T03:44:58.866Z,4.67
2018-12-14T03:47:34.743Z,6.07
2018-12-14T03:52:47.468Z,3.83
2018-12-14T03:55:27.825Z,5.37
2018-12-14T04:42:08.354Z,6.47
2018-12-14T04:44:48.609Z,7.47
2018-12-14T04:47:27.070Z,6.77
2018-12-14T04:50:04.908Z,6.93
2018-12-14T04:52:41.115Z,7.03
2018-12-14T04:55:18.807Z,7.30
2018-12-14T04:57:56.778Z,8.27
2018-12-14T05:00:37.176Z,9.50
2018-12-14T05:03:15.552Z,10.03
2018-12-14T05:05:51.438Z,8.10
2018-12-14T05:08:29.137Z,9.53
2018-12-14T05:11:17.445Z,9.97
2018-12-14T05:13:56.022Z,9.47
2018-12-14T05:16:36.115Z,8.77
2018-12-14T05:19:14.610Z,9.00
2018-12-14T05:21:50.825Z,9.37
2018-12-14T05:24:29.266Z,7.93
2018-12-14T05:27:07.516Z,10.13
2018-12-14T05:29:45.595Z,8.87
2018-12-14T05:32:26.389Z,11.10
2018-12-14T05:35:06.286Z,8.27
2018-12-14T05:37:42.631Z,10.67
2018-12-14T05:40:18.865Z,8.80
2018-12-14T05:42:55.383Z,8.97
2018-12-14T05:45:33.383Z,10.23
2018-12-14T05:48:09.191Z,10.80
2018-12-14T05:50:47.817Z,10.23
2018-12-14T05:53:23.664Z,10.57
2018-12-14T05:55:59.877Z,10.57
2018-12-14T05:58:37.617Z,9.27
2018-12-14T06:01:15.249Z,10.73
2018-12-14T06:03:53.566Z,10.37
2018-12-14T06:06:45.286Z,9.20
2018-12-14T06:09:23.497Z,10.53
2018-12-14T06:12:02.900Z,11.20
2018-12-14T06:14:41.562Z,10.93
2018-12-14T06:17:19.422Z,11.00
2018-12-14T06:19:57.504Z,10.53
2018-12-14T06:22:41.765Z,11.17
2018-12-14T06:25:22.640Z,9.77
2018-12-14T06:28:01.196Z,11.40
2018-12-14T06:30:39.124Z,11.13
2018-12-14T06:33:17.109Z,10.33
2018-12-14T06:35:54.937Z,9.83
2018-12-14T06:38:33.084Z,12.53
2018-12-14T06:41:11.129Z,11.67
2018-12-14T06:43:49.211Z,11.47
2018-12-14T06:46:27.017Z,11.00
2018-12-14T06:49:04.996Z,11.27
2018-12-14T06:51:40.775Z,11.23
2018-12-14T06:54:22.292Z,9.27
2018-12-14T06:57:00.604Z,10.63
2018-12-14T06:59:38.577Z,10.77
2018-12-14T07:02:14.425Z,11.17
2018-12-14T07:04:50.176Z,8.77
2018-12-14T07:07:31.146Z,11.13
2018-12-14T07:10:09.143Z,10.77
2018-12-14T07:12:57.263Z,10.07
2018-12-14T07:15:38.498Z,9.40
2018-12-14T07:18:19.213Z,8.03
2018-12-14T07:21:00.234Z,8.93
2018-12-14T07:23:38.467Z,9.67
2018-12-14T07:26:16.342Z,9.73
2018-12-14T07:28:54.640Z,9.30
2018-12-14T07:31:30.693Z,9.73
2018-12-14T07:34:07.300Z,9.53
2018-12-14T07:36:43.158Z,10.20
2018-12-14T07:39:19.296Z,9.77
2018-12-14T07:41:57.188Z,10.33
2018-12-14T07:44:35.185Z,10.00
2018-12-14T07:47:11.816Z,10.53
2018-12-14T07:49:52.258Z,11.60
2018-12-14T07:52:28.776Z,9.13
2018-12-14T07:55:06.890Z,11.33
2018-12-14T07:57:43.502Z,9.00
2018-12-14T08:02:27.104Z,11.77
2018-12-14T08:05:06.342Z,9.77
2018-12-14T08:07:46.750Z,10.50
2018-12-14T08:10:31.148Z,11.73
2018-12-14T08:13:08.739Z,9.53
2018-12-14T08:15:48.816Z,8.90
2018-12-14T08:18:26.031Z,10.27
2018-12-14T08:21:06.746Z,10.57
2018-12-14T08:23:45.207Z,9.97
2018-12-14T08:26:25.361Z,10.53
2018-12-14T08:29:05.990Z,10.63
2018-12-14T08:31:46.831Z,9.80
2018-12-14T08:34:24.481Z,10.63
2018-12-14T08:37:02.315Z,10.73
2018-12-14T08:39:38.261Z,10.03
2018-12-14T08:42:27.091Z,9.30
2018-12-14T08:45:06.038Z,10.00
2018-12-14T08:47:44.447Z,10.73
2018-12-14T08:50:28.821Z,8.97
2018-12-14T08:53:04.251Z,10.40
2018-12-14T08:55:52.846Z,8.80
2018-12-14T08:58:31.025Z,10.67
2018-12-14T09:01:08.984Z,9.07
2018-12-14T09:03:49.473Z,8.60
2018-12-14T09:06:27.145Z,10.43
2018-12-14T09:09:15.847Z,10.83
2018-12-14T09:12:00.662Z,10.37
2018-12-14T09:14:38.566Z,9.67
2018-12-14T09:17:16.438Z,10.40
2018-12-14T09:19:54.648Z,10.10
2018-12-14T09:22:32.313Z,10.57
2018-12-14T09:25:20.700Z,9.60
2018-12-14T09:28:05.578Z,11.53
2018-12-14T09:30:46.334Z,9.73
2018-12-14T09:33:27.167Z,10.70
2018-12-14T09:36:04.800Z,10.03
2018-12-14T09:38:45.056Z,10.77
2018-12-14T09:41:23.357Z,10.33
2018-12-14T09:44:03.646Z,10.90
2018-12-14T09:46:40.103Z,10.73
2018-12-14T09:49:17.848Z,10.50
2018-12-14T09:51:55.715Z,12.57
2018-12-14T09:54:31.550Z,11.33
2018-12-14T09:57:06.283Z,10.73
2018-12-14T09:59:42.050Z,11.57
2018-12-14T10:02:26.442Z,12.07
2018-12-14T10:05:06.497Z,11.13
2018-12-14T10:07:46.922Z,11.20
2018-12-14T10:14:00.894Z,12.37
2018-12-14T10:16:37.780Z,13.13
2018-12-14T10:19:26.004Z,12.70
2018-12-14T10:22:14.064Z,11.70
2018-12-14T10:25:02.970Z,11.83
2018-12-14T10:27:43.761Z,12.33
2018-12-14T10:30:22.109Z,12.80
2018-12-14T10:32:57.935Z,12.77
2018-12-14T10:35:38.180Z,13.30
2018-12-14T10:38:20.951Z,10.60
2018-12-14T10:40:59.428Z,13.33
2018-12-14T10:43:37.603Z,12.27
2018-12-14T10:46:15.256Z,11.43
2018-12-14T10:48:53.002Z,12.60
2018-12-14T10:51:31.225Z,14.90
2018-12-14T10:54:09.969Z,10.90
2018-12-14T10:56:46.518Z,13.17
2018-12-14T10:59:26.874Z,14.30
2018-12-14T11:02:05.467Z,13.80
2018-12-14T11:04:41.971Z,13.23
2018-12-14T11:07:22.107Z,13.77
2018-12-14T11:10:00.891Z,14.30
2018-12-14T11:12:41.820Z,13.37
2018-12-14T11:15:31.511Z,12.53
2018-12-14T11:18:09.954Z,11.73
2018-12-14T11:20:47.690Z,12.00
2018-12-14T11:23:23.547Z,11.60
2018-12-14T11:26:01.148Z,13.00
2018-12-14T11:28:39.070Z,11.87
2018-12-14T11:31:14.814Z,12.43
2018-12-14T11:33:52.903Z,13.77
2018-12-14T11:36:28.624Z,12.13
2018-12-14T11:39:06.731Z,13.03
2018-12-14T11:41:47.432Z,12.83
2018-12-14T11:44:25.582Z,12.10
2018-12-14T11:47:03.398Z,12.00
2018-12-14T11:49:43.823Z,13.30
2018-12-14T11:52:20.080Z,10.77
2018-12-14T11:54:58.318Z,12.97
2018-12-14T11:57:46.727Z,13.57
2018-12-14T12:00:25.135Z,12.03
2018-12-14T12:03:05.298Z,12.17
2018-12-14T12:05:43.032Z,10.53
2018-12-14T12:08:31.142Z,11.43
2018-12-14T12:11:09.459Z,10.03
2018-12-14T12:13:49.620Z,9.27
2018-12-14T12:16:28.080Z,10.90
2018-12-14T12:19:06.190Z,9.67
2018-12-14T12:21:44.080Z,9.50
2018-12-14T12:24:28.140Z,9.37
2018-12-14T12:27:12.178Z,10.43
2018-12-14T12:29:50.617Z,8.53
2018-12-14T12:32:39.121Z,8.13
2018-12-14T12:35:17.423Z,8.33
2018-12-14T12:37:59.882Z,8.20
2018-12-14T12:40:40.513Z,8.63
2018-12-14T12:43:21.190Z,8.27
2018-12-14T12:46:01.877Z,8.17
2018-12-14T12:48:46.882Z,8.70
2018-12-14T12:51:35.604Z,7.80
2018-12-14T12:54:24.451Z,9.07
2018-12-14T12:57:05.134Z,9.87
2018-12-14T12:59:45.888Z,8.07
2018-12-14T13:02:26.803Z,9.57
2018-12-14T13:05:07.612Z,8.00
2018-12-14T13:07:46.056Z,7.33
2018-12-14T13:10:24.036Z,7.47
2018-12-14T13:13:01.895Z,7.67
2018-12-14T13:15:36.877Z,7.37
2018-12-14T13:18:14.737Z,7.17
2018-12-14T13:20:52.503Z,6.90
2018-12-14T13:23:30.342Z,6.80
2018-12-14T13:26:19.684Z,8.07
2018-12-14T13:29:07.880Z,6.87
2018-12-14T13:31:48.724Z,7.07
2018-12-14T13:34:29.414Z,6.93
2018-12-14T13:37:07.927Z,8.00
2018-12-14T13:39:45.843Z,7.73
2018-12-14T13:42:26.096Z,8.37
2018-12-14T13:45:07.100Z,7.77
2018-12-14T13:47:45.351Z,9.20
2018-12-14T13:50:33.666Z,8.80
2018-12-14T13:53:10.324Z,8.93
2018-12-14T13:55:49.063Z,11.77
2018-12-14T13:58:29.324Z,10.17
2018-12-14T14:01:07.530Z,7.93
2018-12-14T14:03:45.340Z,8.50
2018-12-14T14:06:29.598Z,10.00
2018-12-14T14:09:07.942Z,10.23
2018-12-14T14:11:45.581Z,9.93
2018-12-14T14:14:26.141Z,9.30
2018-12-14T14:16:55.813Z,8.53
2018-12-14T14:19:37.160Z,9.13
2018-12-14T14:22:15.623Z,9.77
2018-12-14T14:25:00.617Z,10.93
2018-12-14T14:27:39.033Z,11.63
2018-12-14T14:30:19.317Z,14.17
2018-12-14T14:33:00.248Z,13.70
2018-12-14T14:35:40.840Z,14.27
2018-12-14T14:38:29.624Z,14.47
2018-12-14T14:41:08.053Z,18.80
2018-12-14T14:43:48.203Z,17.73
2018-12-14T14:46:26.740Z,32.93
2018-12-14T14:49:04.847Z,23.83
2018-12-14T14:51:45.415Z,13.67
2018-12-14T14:54:23.503Z,22.53
2018-12-14T14:57:04.053Z,15.53
2018-12-14T14:59:42.495Z,10.73
2018-12-14T15:02:24.819Z,8.80
2018-12-14T15:05:00.264Z,8.43
2018-12-14T15:07:38.360Z,7.47
2018-12-14T15:10:16.198Z,7.97
2018-12-14T15:12:57.371Z,6.90
2018-12-14T15:15:46.365Z,8.73
2018-12-14T15:19:02.577Z,8.20
2018-12-14T15:21:43.449Z,8.83
2018-12-14T15:24:21.760Z,6.90
2018-12-14T15:27:00.060Z,7.57
2018-12-14T15:29:48.629Z,9.47
2018-12-14T15:32:25.157Z,6.43
2018-12-14T15:35:03.098Z,6.57
2018-12-14T15:37:41.641Z,6.80
2018-12-14T15:40:17.393Z,7.17
2018-12-14T15:42:55.409Z,8.40
2018-12-14T15:45:33.323Z,14.00
2018-12-14T15:48:09.217Z,12.17
2018-12-14T15:50:58.106Z,9.97
2018-12-14T15:53:34.181Z,10.50
2018-12-14T15:56:12.086Z,10.37
2018-12-14T15:58:49.868Z,9.17
2018-12-14T16:01:25.831Z,8.60
2018-12-14T16:04:14.074Z,10.70
2018-12-14T16:06:54.898Z,12.93
2018-12-14T16:09:43.672Z,14.40
2018-12-14T16:12:28.493Z,15.40
2018-12-14T16:14:58.183Z,12.60
2018-12-14T16:17:39.235Z,11.03
2018-12-14T16:20:17.561Z,10.63
2018-12-14T16:23:13.998Z,10.87
2018-12-14T16:25:55.405Z,9.90
2018-12-14T16:32:28.688Z,8.10
2018-12-14T16:34:56.241Z,9.33
2018-12-14T16:37:23.792Z,10.77
2018-12-14T16:40:00.023Z,9.17
2018-12-14T16:42:38.490Z,10.53
2018-12-14T16:45:06.669Z,10.20
2018-12-14T16:47:34.278Z,9.10
2018-12-14T16:50:02.102Z,9.37
2018-12-14T16:52:29.766Z,7.47
2018-12-14T16:55:06.906Z,10.60
2018-12-14T16:57:34.509Z,9.87
2018-12-14T17:00:02.281Z,9.60
2018-12-14T17:02:29.843Z,9.20
2018-12-14T17:08:36.055Z,9.20
2018-12-14T17:11:03.755Z,10.23
2018-12-14T17:13:31.322Z,10.70
2018-12-14T17:16:07.536Z,9.37
2018-12-14T17:18:35.093Z,8.60
2018-12-14T17:21:02.664Z,8.43
2018-12-14T17:30:42.756Z,7.37
2018-12-14T17:36:41.462Z,7.70
2018-12-14T17:39:09.189Z,9.37
2018-12-14T17:41:36.918Z,11.93
2018-12-14T17:44:04.516Z,11.20
2018-12-14T17:46:32.612Z,12.00
2018-12-14T17:49:00.177Z,10.33
2018-12-14T17:51:27.971Z,10.60
2018-12-14T17:53:55.568Z,9.50
2018-12-14T17:56:23.311Z,10.00
2018-12-14T17:59:31.092Z,12.47
2018-12-14T18:01:58.905Z,10.60
2018-12-14T18:05:01.497Z,9.83
2018-12-14T18:11:31.594Z,9.97
2018-12-14T18:13:59.190Z,9.43
2018-12-14T18:16:26.837Z,9.73
2018-12-14T18:18:54.476Z,8.83
2018-12-14T18:21:22.047Z,9.63
2018-12-14T18:24:00.496Z,8.53
2018-12-14T18:26:35.310Z,9.07
2018-12-14T18:29:03.000Z,8.70
2018-12-14T18:31:30.542Z,9.47
2018-12-14T18:33:59.627Z,9.03
2018-12-14T18:36:35.133Z,9.97
2018-12-14T18:49:34.705Z,10.23
2018-12-14T18:52:10.786Z,10.13
2018-12-14T18:55:02.554Z,11.23
2018-12-14T18:57:40.761Z,10.10
2018-12-14T19:00:18.638Z,10.70
2018-12-14T19:02:54.496Z,13.73
2018-12-14T19:05:33.041Z,12.47
2018-12-14T19:08:10.678Z,10.77
2018-12-14T19:10:48.645Z,10.63
2018-12-14T19:13:26.306Z,10.67
2018-12-14T19:16:14.729Z,10.83
2018-12-14T19:18:51.109Z,9.80
2018-12-14T19:21:39.494Z,10.97
2018-12-14T19:24:17.875Z,11.50
2018-12-14T19:26:55.809Z,15.63
2018-12-14T19:29:36.407Z,15.33
2018-12-14T19:32:16.439Z,11.10
2018-12-14T19:34:53.513Z,12.30
2018-12-14T19:37:32.134Z,10.63
2018-12-14T19:40:20.267Z,11.17
2018-12-14T19:43:01.089Z,14.63
2018-12-14T19:45:38.941Z,12.07
2018-12-14T19:48:19.245Z,10.30
2018-12-14T19:51:05.405Z,12.17
2018-12-14T19:53:43.750Z,11.00
2018-12-14T19:56:24.068Z,12.50
2018-12-14T19:59:02.503Z,10.53
2018-12-14T20:01:38.245Z,11.97
2018-12-14T20:04:05.803Z,12.00
2018-12-14T20:06:46.011Z,12.37
2018-12-14T20:09:24.399Z,10.27
2018-12-14T20:11:52.013Z,11.77
2018-12-14T20:14:33.976Z,13.67
2018-12-14T20:17:14.912Z,12.57
2018-12-14T20:19:55.862Z,12.20
2018-12-14T20:22:33.515Z,13.47
2018-12-14T20:25:21.981Z,13.50
2018-12-14T20:27:58.336Z,13.07
2018-12-14T20:30:46.605Z,12.63
2018-12-14T20:33:23.234Z,13.17
2018-12-14T20:36:11.423Z,12.47
2018-12-14T20:38:52.297Z,12.63
2018-12-14T20:41:30.985Z,14.27
2018-12-14T20:44:06.607Z,13.13
2018-12-14T20:46:47.018Z,15.93
2018-12-14T20:49:18.477Z,15.10
2018-12-14T20:51:46.079Z,13.67
2018-12-14T20:54:26.709Z,13.67
2018-12-14T20:57:01.952Z,13.60
2018-12-14T20:59:42.025Z,13.30
2018-12-14T21:02:44.181Z,13.80
2018-12-14T21:05:24.473Z,13.50
2018-12-14T21:08:02.605Z,13.03
2018-12-14T21:10:43.007Z,14.27
2018-12-14T21:13:31.560Z,14.10
2018-12-14T21:16:07.916Z,13.00
2018-12-14T21:19:13.290Z,14.73
2018-12-14T21:21:41.078Z,14.47
2018-12-14T21:24:25.374Z,15.47
2018-12-14T21:27:06.039Z,13.40
2018-12-14T21:29:41.047Z,14.17
2018-12-14T21:32:20.756Z,12.03
2018-12-14T21:34:58.926Z,14.20
2018-12-14T21:37:33.741Z,13.37
2018-12-14T21:40:14.327Z,13.73
2018-12-14T21:42:50.066Z,13.13
2018-12-14T21:45:18.972Z,13.43
2018-12-14T21:47:57.146Z,13.97
2018-12-14T21:50:37.773Z,12.50
2018-12-14T21:53:29.470Z,12.70
2018-12-14T21:56:05.866Z,14.67
2018-12-14T21:58:34.597Z,11.80
2018-12-14T22:01:15.315Z,14.97
2018-12-14T22:03:51.907Z,12.67
2018-12-14T22:06:22.687Z,13.77
2018-12-14T22:09:07.736Z,14.37
2018-12-14T22:11:45.321Z,13.03
2018-12-14T22:14:13.758Z,14.23
2018-12-14T22:16:51.260Z,14.00
2018-12-14T22:19:31.780Z,14.37
2018-12-14T22:22:16.542Z,12.40
2018-12-14T22:25:05.289Z,12.50
2018-12-14T22:28:08.412Z,10.97
2018-12-14T22:30:46.345Z,11.37
2018-12-14T22:33:22.054Z,13.87
2018-12-14T22:35:49.696Z,13.03
2018-12-14T22:38:28.228Z,12.10
2018-12-14T22:41:05.887Z,13.47
2018-12-14T22:43:44.393Z,11.67
2018-12-14T22:46:24.520Z,12.67
2018-12-14T22:49:05.238Z,12.53
2018-12-14T22:51:53.828Z,12.23
2018-12-14T22:54:32.079Z,12.63
2018-12-14T23:01:18.957Z,12.17
2018-12-14T23:04:01.733Z,11.37
2018-12-14T23:06:42.308Z,12.73
2018-12-14T23:09:20.530Z,15.70
2018-12-14T23:11:51.150Z,12.70
2018-12-14T23:14:31.324Z,11.63
2018-12-14T23:17:09.540Z,13.03
2018-12-14T23:19:49.637Z,13.10
2018-12-14T23:22:24.876Z,10.60
2018-12-14T23:25:02.796Z,11.87
2018-12-14T23:27:42.918Z,10.83
2018-12-14T23:30:21.552Z,10.07
2018-12-14T23:32:57.166Z,10.90
2018-12-14T23:35:33.141Z,10.87
2018-12-14T23:38:10.891Z,10.63
2018-12-14T23:40:50.913Z,9.03
2018-12-14T23:43:29.459Z,9.50
2018-12-14T23:46:04.118Z,11.47
2018-12-14T23:48:41.998Z,10.90
2018-12-14T23:51:20.193Z,10.57
2018-12-14T23:54:22.195Z,8.67
2018-12-14T23:56:58.106Z,9.23
2018-12-14T23:59:33.062Z,9.13
